METAR Data
IDs: Format: Raw Decoded Include TAF

Data at: 0605 UTC 24 Sep 2018

KMHL 240555Z AUTO 08005KT 10SM SCT046 16/13 A3000 RMK AO2
KMHL 240535Z AUTO 08004KT 10SM BKN046 16/13 A3000 RMK AO2
KMHL 240515Z AUTO 08003KT 10SM CLR 16/13 A3001 RMK AO2
KMHL 240455Z AUTO 08003KT 10SM SCT046 17/13 A3001 RMK AO2
KMHL 240435Z AUTO 07003KT 10SM SCT046 17/13 A3001 RMK AO2
KMHL 240415Z AUTO 08004KT 10SM SCT046 17/13 A3001 RMK AO2
KMHL 240355Z AUTO 08005KT 10SM SCT046 17/13 A3001 RMK AO2
KMHL 240335Z AUTO 08005KT 10SM SCT046 17/13 A3000 RMK AO2
KMHL 240315Z AUTO 08005KT 10SM SCT046 18/12 A3000 RMK AO2
KMHL 240255Z AUTO 07005KT 10SM SCT046 18/12 A3001 RMK AO2
KMHL 240235Z AUTO 07004KT 10SM BKN046 18/12 A3001 RMK AO2
KMHL 240215Z AUTO 07005KT 10SM BKN046 18/13 A3001 RMK AO2
KMHL 240155Z AUTO 08005KT 10SM SCT046 19/12 A3001 RMK AO2
KMHL 240135Z AUTO 08003KT 10SM CLR 20/12 A3000 RMK AO2
KMHL 240115Z AUTO 08003KT 10SM CLR 20/12 A3000 RMK AO2
KMHL 240055Z AUTO 07003KT 10SM CLR 20/12 A2999 RMK AO2
KMHL 240035Z AUTO 06003KT 10SM CLR 21/12 A2999 RMK AO2
KMHL 240015Z AUTO 06003KT 10SM CLR 22/12 A2999 RMK AO2
KMHL 232355Z AUTO 07003KT 10SM CLR 22/12 A3000 RMK AO2
KMHL 232335Z AUTO 07004KT 10SM CLR 23/12 A3000 RMK AO2
KMHL 232315Z AUTO 07004KT 10SM CLR 25/11 A3000 RMK AO2
KMHL 232255Z AUTO 12006KT 10SM CLR 25/11 A3000 RMK AO2
KMHL 232235Z AUTO 08006KT 10SM CLR 25/11 A3000 RMK AO2
KMHL 232215Z AUTO 12008KT 10SM CLR 25/11 A3000 RMK AO2
KMHL 232155Z AUTO 11007KT 10SM CLR 25/11 A3000 RMK AO2
KMHL 232135Z AUTO 13008KT 10SM CLR 25/11 A3000 RMK AO2
KMHL 232115Z AUTO 13008KT 10SM CLR 25/12 A3001 RMK AO2
KMHL 232055Z AUTO 12005KT 10SM CLR 25/12 A3001 RMK AO2
KMHL 232035Z AUTO 10011KT 10SM CLR 25/11 A3002 RMK AO2
KMHL 232015Z AUTO 11008KT 10SM CLR 25/11 A3003 RMK AO2
KMHL 231955Z AUTO 09010KT 10SM CLR 25/11 A3004 RMK AO2
KMHL 231935Z AUTO 13008KT 10SM CLR 25/12 A3005 RMK AO2
KMHL 231915Z AUTO 10009KT 10SM CLR 24/12 A3006 RMK AO2
KMHL 231855Z AUTO 12006KT 10SM CLR 23/12 A3007 RMK AO2
KMHL 231835Z AUTO 13005KT 10SM CLR 23/12 A3009 RMK AO2
KMHL 231815Z AUTO 08009KT 10SM CLR 23/12 A3009 RMK AO2
KMHL 231755Z AUTO 12008KT 10SM CLR 23/12 A3010 RMK AO2
KMHL 231735Z AUTO 13005KT 10SM CLR 22/12 A3010 RMK AO2
KMHL 231715Z AUTO 11004KT 10SM CLR 22/12 A3011 RMK AO2
KMHL 231655Z AUTO 08003KT 10SM CLR 21/12 A3012 RMK AO2
KMHL 231635Z AUTO 08005KT 10SM CLR 21/12 A3012 RMK AO2
KMHL 231615Z AUTO 08003KT 10SM CLR 20/12 A3013 RMK AO2
KMHL 231555Z AUTO 10004KT 10SM CLR 20/12 A3013 RMK AO2
KMHL 231535Z AUTO 11006KT 10SM CLR 18/13 A3014 RMK AO2
KMHL 231515Z AUTO 12005KT 10SM CLR 18/13 A3014 RMK AO2
KMHL 231455Z AUTO 08004KT 10SM CLR 17/13 A3014 RMK AO2
KMHL 231435Z AUTO 00000KT 10SM CLR 15/13 A3014 RMK AO2
KMHL 231415Z AUTO 09003KT 10SM CLR 15/13 A3014 RMK AO2
KMHL 231355Z AUTO 09003KT 10SM CLR 13/12 A3013 RMK AO2
KMHL 231335Z AUTO 00000KT 10SM CLR 13/12 A3013 RMK AO2
KMHL 231315Z AUTO 00000KT 10SM CLR 12/12 A3013 RMK AO2
KMHL 231255Z AUTO 00000KT 5SM BR CLR 11/11 A3013 RMK AO2
KMHL 231235Z AUTO 00000KT 10SM CLR 11/11 A3013 RMK AO2
KMHL 231215Z AUTO 09003KT 7SM CLR 10/10 A3012 RMK AO2
KMHL 231155Z AUTO 08003KT 1 1/2SM BR VV007 10/10 A3011 RMK AO2
KMHL 231135Z AUTO 09003KT 7SM CLR 10/10 A3011 RMK AO2
KMHL 231115Z AUTO 09003KT 10SM CLR 11/11 A3011 RMK AO2
KMHL 231055Z AUTO 09004KT 10SM CLR 10/10 A3011 RMK AO2
KMHL 231035Z AUTO 09004KT 10SM CLR 10/10 A3011 RMK AO2
KMHL 231015Z AUTO 09004KT 10SM CLR 11/11 A3011 RMK AO2
KMHL 230955Z AUTO 09003KT 10SM CLR 10/10 A3011 RMK AO2
KMHL 230935Z AUTO 00000KT 10SM CLR 10/10 A3010 RMK AO2
KMHL 230915Z AUTO 00000KT 10SM CLR 11/11 A3010 RMK AO2
KMHL 230855Z AUTO 00000KT 10SM CLR 11/11 A3011 RMK AO2
KMHL 230835Z AUTO 00000KT 10SM CLR 11/10 A3011 RMK AO2
KMHL 230815Z AUTO 10003KT 10SM CLR 11/11 A3011 RMK AO2
KMHL 230755Z AUTO 11003KT 10SM CLR 12/11 A3011 RMK AO2
KMHL 230735Z AUTO 00000KT 10SM CLR 12/11 A3012 RMK AO2
KMHL 230715Z AUTO 00000KT 10SM CLR 12/11 A3012 RMK AO2
KMHL 230655Z AUTO 00000KT 10SM CLR 12/11 A3012 RMK AO2
KMHL 230635Z AUTO 00000KT 10SM CLR 12/11 A3012 RMK AO2
KMHL 230615Z AUTO 09004KT 10SM CLR 12/11 A3012 RMK AO2
KMHL 230555Z AUTO 08005KT 10SM CLR 12/11 A3012 RMK AO2
KMHL 230535Z AUTO 08004KT 10SM CLR 12/11 A3012 RMK AO2
KMHL 230515Z AUTO 07004KT 10SM CLR 12/11 A3013 RMK AO2
KMHL 230455Z AUTO 08004KT 10SM CLR 13/11 A3013 RMK AO2
KMHL 230435Z AUTO 07004KT 10SM CLR 14/11 A3013 RMK AO2
KMHL 230415Z AUTO 05004KT 10SM CLR 14/11 A3013 RMK AO2
KMHL 230355Z AUTO 06004KT 10SM CLR 15/11 A3013 RMK AO2
KMHL 230335Z AUTO 07004KT 10SM CLR 15/11 A3013 RMK AO2
KMHL 230315Z AUTO 07003KT 10SM CLR 15/11 A3014 RMK AO2
KMHL 230255Z AUTO 09003KT 10SM CLR 16/11 A3014 RMK AO2
KMHL 230235Z AUTO 07004KT 10SM CLR 16/11 A3014 RMK AO2
KMHL 230215Z AUTO 07004KT 10SM CLR 16/11 A3013 RMK AO2
KMHL 230155Z AUTO 06003KT 10SM CLR 17/11 A3013 RMK AO2
KMHL 230135Z AUTO 05003KT 10SM CLR 17/11 A3012 RMK AO2
KMHL 230115Z AUTO 05003KT 10SM CLR 18/11 A3012 RMK AO2
KMHL 230055Z AUTO 05003KT 10SM CLR 18/12 A3012 RMK AO2
KMHL 230035Z AUTO 00000KT 10SM CLR 19/12 A3012 RMK AO2
KMHL 230015Z AUTO 06003KT 10SM CLR 20/11 A3012 RMK AO2
KMHL 222355Z AUTO 08003KT 10SM CLR 21/12 A3013 RMK AO2
KMHL 222335Z AUTO 10004KT 10SM CLR 21/11 A3013 RMK AO2
KMHL 222315Z AUTO 11004KT 10SM CLR 22/11 A3013 RMK AO2
KMHL 222255Z AUTO 09006KT 10SM CLR 22/11 A3014 RMK AO2
KMHL 222235Z AUTO 09005KT 10SM CLR 22/11 A3014 RMK AO2
KMHL 222215Z AUTO 07004KT 10SM CLR 22/11 A3014 RMK AO2
KMHL 222155Z AUTO 06008KT 10SM CLR 22/11 A3014 RMK AO2
KMHL 222135Z AUTO 07007KT 10SM CLR 23/11 A3014 RMK AO2
KMHL 222115Z AUTO 08006KT 10SM CLR 23/10 A3015 RMK AO2
KMHL 222055Z AUTO 10004KT 10SM CLR 22/10 A3015 RMK AO2
KMHL 222035Z AUTO 06007KT 10SM CLR 22/10 A3016 RMK AO2
KMHL 222015Z AUTO 06007KT 053V133 10SM CLR 22/11 A3017 RMK AO2
KMHL 221955Z AUTO 10003KT 10SM CLR 22/10 A3018 RMK AO2
KMHL 221935Z AUTO 09004KT 10SM CLR 22/10 A3018 RMK AO2
KMHL 221915Z AUTO 06005KT 10SM CLR 21/10 A3019 RMK AO2
KMHL 221855Z AUTO 08006KT 10SM CLR 21/11 A3020 RMK AO2
KMHL 221835Z AUTO 10004KT 10SM CLR 21/10 A3021 RMK AO2
KMHL 221815Z AUTO 06004KT 10SM CLR 21/10 A3022 RMK AO2